Jim Hamilton L.B. Owens Airport
KCUB : now visible

Airfield :











YOU CAN JOIN US ON...

 
LOGIN :

Register | Disclaimer

   EN    FR    IT 

 









Legend :    VFR   Marginal VFR   IFR   Intensive IFR   Very Intensive IFR
Visi :
Ceiling :
>= 8 km
>= 3000ft
5 to 8 km
1000 to 3000 ft
1500m to 5 km
500 to 1000 ft
800 to 1500m
200 to 500 ft
< 800m
< 200 ft
Symbols :   Thunderstorms  Fog  Heavy snow  Heavy precipitations  Wind > 20 kt






- Airport Elevation : 193 ft


KCUB - Jim Hamilton L.B. Owens

CURRENT METAR :
  • 220953Z AUTO 33003KT 10SM CLR 04/M05 A3018 RMK AO2 SLP217 T00441050

EXPIRED METARs :
  • 220853Z AUTO VRB03KT 10SM CLR 05/M05 A3017 RMK AO2 SLP216 T00501050 53006
  • 220753Z AUTO 00000KT 10SM CLR 06/M04 A3015 RMK AO2 SLP208 T00561044

TAF KCUB
Valid from the 22 at 09:00 until the 23 at 06:00 UTC


220859Z 2209/2306 VRB04KT P6SM SKC
FM221700 28008G15KT P6SM SKC
FM230000 VRB03KT P6SM SKC
KZJX FIR / North America



MET'MAP, your aeronautical weather chart ! - Copyright ORBIFLY December 2007 - Disclaimer

ORBIFLY MET'MAP TEAM :

Programming & Development : Alexandra Zaïnal
Concept & original design : Baudouin d'Aumeries
Assistance for programming : Marc-Olivier Méhu
Technical & hardware support : Manuel Goepfert

Contact : metmap@orbifly.com




SOURCES & CREDITS :

   NOAA       Earth
Advisory